sensor_id;sensor_type;location;lat;lon;timestamp;P1;durP1;ratioP1;P2;durP2;ratioP2
51272;SDS011;37345;59.828;30.328;2023-04-16T00:00:46;3.63;;;1.30;;
51272;SDS011;37345;59.828;30.328;2023-04-16T00:03:13;4.03;;;1.48;;
51272;SDS011;37345;59.828;30.328;2023-04-16T00:05:39;3.83;;;1.30;;
51272;SDS011;37345;59.828;30.328;2023-04-16T00:08:05;3.40;;;1.30;;
51272;SDS011;37345;59.828;30.328;2023-04-16T00:10:33;2.20;;;1.23;;
51272;SDS011;37345;59.828;30.328;2023-04-16T00:12:59;2.42;;;1.10;;
51272;SDS011;37345;59.828;30.328;2023-04-16T00:15:25;4.53;;;1.52;;
51272;SDS011;37345;59.828;30.328;2023-04-16T00:17:51;3.00;;;1.30;;
51272;SDS011;37345;59.828;30.328;2023-04-16T00:20:17;2.63;;;1.58;;
51272;SDS011;37345;59.828;30.328;2023-04-16T00:22:46;4.43;;;1.40;;
51272;SDS011;37345;59.828;30.328;2023-04-16T00:25:13;3.83;;;1.30;;
51272;SDS011;37345;59.828;30.328;2023-04-16T00:27:39;2.30;;;1.27;;
51272;SDS011;37345;59.828;30.328;2023-04-16T00:30:05;2.27;;;1.53;;
51272;SDS011;37345;59.828;30.328;2023-04-16T00:32:31;2.30;;;1.23;;
51272;SDS011;37345;59.828;30.328;2023-04-16T00:34:58;2.50;;;1.38;;
51272;SDS011;37345;59.828;30.328;2023-04-16T00:37:24;2.17;;;1.13;;
51272;SDS011;37345;59.828;30.328;2023-04-16T00:39:50;6.25;;;1.20;;
51272;SDS011;37345;59.828;30.328;2023-04-16T00:42:16;3.50;;;1.13;;
51272;SDS011;37345;59.828;30.328;2023-04-16T00:44:42;3.15;;;1.50;;
51272;SDS011;37345;59.828;30.328;2023-04-16T00:47:08;4.32;;;1.40;;
51272;SDS011;37345;59.828;30.328;2023-04-16T00:49:34;4.50;;;1.20;;
51272;SDS011;37345;59.828;30.328;2023-04-16T00:52:01;2.83;;;1.20;;
51272;SDS011;37345;59.828;30.328;2023-04-16T00:54:27;5.30;;;1.88;;
51272;SDS011;37345;59.828;30.328;2023-04-16T00:56:53;5.65;;;1.60;;
51272;SDS011;37345;59.828;30.328;2023-04-16T00:59:22;5.70;;;1.90;;
51272;SDS011;37345;59.828;30.328;2023-04-16T01:01:48;3.90;;;1.60;;
51272;SDS011;37345;59.828;30.328;2023-04-16T01:04:14;2.63;;;1.33;;
51272;SDS011;37345;59.828;30.328;2023-04-16T01:06:40;3.28;;;1.58;;
51272;SDS011;37345;59.828;30.328;2023-04-16T01:09:06;4.20;;;1.88;;
51272;SDS011;37345;59.828;30.328;2023-04-16T01:11:33;5.00;;;1.50;;
51272;SDS011;37345;59.828;30.328;2023-04-16T01:14:01;2.78;;;1.38;;
51272;SDS011;37345;59.828;30.328;2023-04-16T01:16:27;2.30;;;1.40;;
51272;SDS011;37345;59.828;30.328;2023-04-16T01:18:53;4.32;;;1.73;;
51272;SDS011;37345;59.828;30.328;2023-04-16T01:21:19;4.20;;;1.42;;
51272;SDS011;37345;59.828;30.328;2023-04-16T01:23:45;4.43;;;1.50;;
51272;SDS011;37345;59.828;30.328;2023-04-16T01:26:11;3.40;;;1.40;;
51272;SDS011;37345;59.828;30.328;2023-04-16T01:28:37;4.20;;;1.10;;
51272;SDS011;37345;59.828;30.328;2023-04-16T01:31:04;2.20;;;1.02;;
51272;SDS011;37345;59.828;30.328;2023-04-16T01:33:30;5.40;;;0.95;;
51272;SDS011;37345;59.828;30.328;2023-04-16T01:35:56;3.05;;;1.33;;
51272;SDS011;37345;59.828;30.328;2023-04-16T01:38:22;2.15;;;1.17;;
51272;SDS011;37345;59.828;30.328;2023-04-16T01:40:48;3.88;;;1.20;;
51272;SDS011;37345;59.828;30.328;2023-04-16T01:43:14;3.35;;;1.05;;
51272;SDS011;37345;59.828;30.328;2023-04-16T01:45:41;2.60;;;0.95;;
51272;SDS011;37345;59.828;30.328;2023-04-16T01:48:07;5.05;;;1.10;;
51272;SDS011;37345;59.828;30.328;2023-04-16T01:50:33;3.38;;;1.15;;
51272;SDS011;37345;59.828;30.328;2023-04-16T01:52:59;2.20;;;1.02;;
51272;SDS011;37345;59.828;30.328;2023-04-16T01:55:28;1.65;;;0.80;;
51272;SDS011;37345;59.828;30.328;2023-04-16T01:57:55;3.55;;;1.13;;
51272;SDS011;37345;59.828;30.328;2023-04-16T02:00:21;2.23;;;0.77;;
51272;SDS011;37345;59.828;30.328;2023-04-16T02:02:47;3.72;;;1.10;;
51272;SDS011;37345;59.828;30.328;2023-04-16T02:05:13;4.50;;;1.10;;
51272;SDS011;37345;59.828;30.328;2023-04-16T02:07:39;1.92;;;1.08;;
51272;SDS011;37345;59.828;30.328;2023-04-16T02:10:06;3.17;;;1.17;;
51272;SDS011;37345;59.828;30.328;2023-04-16T02:12:34;3.13;;;1.00;;
51272;SDS011;37345;59.828;30.328;2023-04-16T02:15:00;5.68;;;1.40;;
51272;SDS011;37345;59.828;30.328;2023-04-16T02:17:26;3.00;;;1.05;;
51272;SDS011;37345;59.828;30.328;2023-04-16T02:19:52;3.87;;;1.00;;
51272;SDS011;37345;59.828;30.328;2023-04-16T02:22:18;3.72;;;1.10;;
51272;SDS011;37345;59.828;30.328;2023-04-16T02:24:44;3.30;;;0.98;;
51272;SDS011;37345;59.828;30.328;2023-04-16T02:27:10;1.45;;;0.82;;
51272;SDS011;37345;59.828;30.328;2023-04-16T02:29:37;3.67;;;1.00;;
51272;SDS011;37345;59.828;30.328;2023-04-16T02:32:03;3.30;;;1.08;;
51272;SDS011;37345;59.828;30.328;2023-04-16T02:34:29;3.80;;;1.20;;
51272;SDS011;37345;59.828;30.328;2023-04-16T02:36:55;1.30;;;0.90;;
51272;SDS011;37345;59.828;30.328;2023-04-16T02:39:22;3.50;;;1.27;;
51272;SDS011;37345;59.828;30.328;2023-04-16T02:41:48;4.63;;;1.35;;
51272;SDS011;37345;59.828;30.328;2023-04-16T02:44:14;6.45;;;1.10;;
51272;SDS011;37345;59.828;30.328;2023-04-16T02:46:40;3.15;;;1.30;;
51272;SDS011;37345;59.828;30.328;2023-04-16T02:49:06;3.65;;;1.40;;
51272;SDS011;37345;59.828;30.328;2023-04-16T02:51:33;3.63;;;1.58;;
51272;SDS011;37345;59.828;30.328;2023-04-16T02:53:59;3.45;;;1.40;;
51272;SDS011;37345;59.828;30.328;2023-04-16T02:56:27;2.90;;;1.20;;
51272;SDS011;37345;59.828;30.328;2023-04-16T02:58:53;3.33;;;1.30;;
51272;SDS011;37345;59.828;30.328;2023-04-16T03:01:19;3.88;;;1.48;;
51272;SDS011;37345;59.828;30.328;2023-04-16T03:03:45;5.03;;;1.47;;
51272;SDS011;37345;59.828;30.328;2023-04-16T03:06:11;4.00;;;1.50;;
51272;SDS011;37345;59.828;30.328;2023-04-16T03:08:37;3.83;;;1.73;;
51272;SDS011;37345;59.828;30.328;2023-04-16T03:11:04;7.15;;;1.85;;
51272;SDS011;37345;59.828;30.328;2023-04-16T03:13:30;3.30;;;1.70;;
51272;SDS011;37345;59.828;30.328;2023-04-16T03:15:56;3.33;;;1.42;;
51272;SDS011;37345;59.828;30.328;2023-04-16T03:18:22;5.18;;;1.45;;
51272;SDS011;37345;59.828;30.328;2023-04-16T03:20:51;3.63;;;1.23;;
51272;SDS011;37345;59.828;30.328;2023-04-16T03:23:18;4.50;;;1.50;;
51272;SDS011;37345;59.828;30.328;2023-04-16T03:25:44;3.93;;;1.30;;
51272;SDS011;37345;59.828;30.328;2023-04-16T03:28:12;5.45;;;1.52;;
51272;SDS011;37345;59.828;30.328;2023-04-16T03:30:38;6.43;;;1.50;;
51272;SDS011;37345;59.828;30.328;2023-04-16T03:33:05;4.30;;;1.35;;
51272;SDS011;37345;59.828;30.328;2023-04-16T03:35:31;5.65;;;1.73;;
51272;SDS011;37345;59.828;30.328;2023-04-16T03:37:57;2.22;;;1.00;;
51272;SDS011;37345;59.828;30.328;2023-04-16T03:40:23;4.68;;;1.70;;
51272;SDS011;37345;59.828;30.328;2023-04-16T03:42:50;4.88;;;1.52;;
51272;SDS011;37345;59.828;30.328;2023-04-16T03:45:16;3.47;;;1.75;;
51272;SDS011;37345;59.828;30.328;2023-04-16T03:47:42;2.90;;;1.75;;
51272;SDS011;37345;59.828;30.328;2023-04-16T03:50:08;5.07;;;1.77;;
51272;SDS011;37345;59.828;30.328;2023-04-16T03:52:35;4.95;;;1.48;;
51272;SDS011;37345;59.828;30.328;2023-04-16T03:55:01;3.70;;;1.58;;
51272;SDS011;37345;59.828;30.328;2023-04-16T03:57:28;4.88;;;1.20;;
51272;SDS011;37345;59.828;30.328;2023-04-16T03:59:54;3.33;;;1.30;;
51272;SDS011;37345;59.828;30.328;2023-04-16T04:02:20;2.58;;;1.23;;
51272;SDS011;37345;59.828;30.328;2023-04-16T04:04:46;2.92;;;1.60;;
51272;SDS011;37345;59.828;30.328;2023-04-16T04:07:12;3.70;;;1.48;;
51272;SDS011;37345;59.828;30.328;2023-04-16T04:09:38;3.80;;;1.70;;
51272;SDS011;37345;59.828;30.328;2023-04-16T04:12:04;7.72;;;1.58;;
51272;SDS011;37345;59.828;30.328;2023-04-16T04:14:31;3.50;;;1.50;;
51272;SDS011;37345;59.828;30.328;2023-04-16T04:16:57;4.20;;;1.40;;
51272;SDS011;37345;59.828;30.328;2023-04-16T04:19:23;4.50;;;1.60;;
51272;SDS011;37345;59.828;30.328;2023-04-16T04:21:49;3.60;;;1.60;;
51272;SDS011;37345;59.828;30.328;2023-04-16T04:24:15;4.68;;;1.52;;
51272;SDS011;37345;59.828;30.328;2023-04-16T04:26:41;3.13;;;1.60;;
51272;SDS011;37345;59.828;30.328;2023-04-16T04:29:07;4.20;;;1.77;;
51272;SDS011;37345;59.828;30.328;2023-04-16T04:31:33;5.50;;;1.60;;
51272;SDS011;37345;59.828;30.328;2023-04-16T04:34:00;3.58;;;1.63;;
51272;SDS011;37345;59.828;30.328;2023-04-16T04:36:26;8.82;;;1.70;;
51272;SDS011;37345;59.828;30.328;2023-04-16T04:38:52;5.60;;;1.50;;
51272;SDS011;37345;59.828;30.328;2023-04-16T04:41:18;3.42;;;1.40;;
51272;SDS011;37345;59.828;30.328;2023-04-16T04:43:45;4.10;;;1.33;;
51272;SDS011;37345;59.828;30.328;2023-04-16T04:46:11;3.28;;;1.40;;
51272;SDS011;37345;59.828;30.328;2023-04-16T04:48:37;4.13;;;1.38;;
51272;SDS011;37345;59.828;30.328;2023-04-16T04:51:04;5.50;;;1.80;;
51272;SDS011;37345;59.828;30.328;2023-04-16T04:53:30;4.68;;;1.45;;
51272;SDS011;37345;59.828;30.328;2023-04-16T04:55:56;5.30;;;1.60;;
51272;SDS011;37345;59.828;30.328;2023-04-16T04:58:22;3.38;;;1.50;;
51272;SDS011;37345;59.828;30.328;2023-04-16T05:00:48;4.95;;;1.52;;
51272;SDS011;37345;59.828;30.328;2023-04-16T05:03:18;3.50;;;1.60;;
51272;SDS011;37345;59.828;30.328;2023-04-16T05:05:45;4.40;;;1.50;;
51272;SDS011;37345;59.828;30.328;2023-04-16T05:08:11;3.80;;;1.20;;
51272;SDS011;37345;59.828;30.328;2023-04-16T05:10:37;5.53;;;1.45;;
51272;SDS011;37345;59.828;30.328;2023-04-16T05:13:03;3.38;;;1.20;;
51272;SDS011;37345;59.828;30.328;2023-04-16T05:15:29;4.18;;;1.55;;
51272;SDS011;37345;59.828;30.328;2023-04-16T05:17:55;5.05;;;1.55;;
51272;SDS011;37345;59.828;30.328;2023-04-16T05:20:22;4.30;;;1.30;;
51272;SDS011;37345;59.828;30.328;2023-04-16T05:22:51;2.88;;;1.58;;
51272;SDS011;37345;59.828;30.328;2023-04-16T05:25:19;8.73;;;1.77;;
51272;SDS011;37345;59.828;30.328;2023-04-16T05:27:45;6.40;;;1.77;;
51272;SDS011;37345;59.828;30.328;2023-04-16T05:30:11;6.95;;;1.50;;
51272;SDS011;37345;59.828;30.328;2023-04-16T05:32:38;2.53;;;1.23;;
51272;SDS011;37345;59.828;30.328;2023-04-16T05:35:05;5.18;;;1.70;;
51272;SDS011;37345;59.828;30.328;2023-04-16T05:37:31;3.40;;;1.50;;
51272;SDS011;37345;59.828;30.328;2023-04-16T05:39:57;4.80;;;1.33;;
51272;SDS011;37345;59.828;30.328;2023-04-16T05:42:23;6.13;;;2.00;;
51272;SDS011;37345;59.828;30.328;2023-04-16T05:44:49;4.28;;;1.55;;
51272;SDS011;37345;59.828;30.328;2023-04-16T05:47:16;5.35;;;1.60;;
51272;SDS011;37345;59.828;30.328;2023-04-16T05:49:42;4.40;;;1.77;;
51272;SDS011;37345;59.828;30.328;2023-04-16T05:52:09;3.78;;;1.52;;
51272;SDS011;37345;59.828;30.328;2023-04-16T05:54:35;4.50;;;1.67;;
51272;SDS011;37345;59.828;30.328;2023-04-16T05:57:02;6.30;;;1.65;;
51272;SDS011;37345;59.828;30.328;2023-04-16T05:59:28;6.47;;;1.50;;
51272;SDS011;37345;59.828;30.328;2023-04-16T06:01:55;3.90;;;1.30;;
51272;SDS011;37345;59.828;30.328;2023-04-16T06:04:22;4.57;;;1.55;;
51272;SDS011;37345;59.828;30.328;2023-04-16T06:06:48;1.50;;;0.90;;
51272;SDS011;37345;59.828;30.328;2023-04-16T06:09:14;3.00;;;1.30;;
51272;SDS011;37345;59.828;30.328;2023-04-16T06:11:40;4.80;;;1.43;;
51272;SDS011;37345;59.828;30.328;2023-04-16T06:14:06;2.88;;;1.50;;
51272;SDS011;37345;59.828;30.328;2023-04-16T06:16:32;3.00;;;1.35;;
51272;SDS011;37345;59.828;30.328;2023-04-16T06:18:59;5.15;;;1.20;;
51272;SDS011;37345;59.828;30.328;2023-04-16T06:21:25;1.83;;;1.10;;
51272;SDS011;37345;59.828;30.328;2023-04-16T06:23:51;5.37;;;1.20;;
51272;SDS011;37345;59.828;30.328;2023-04-16T06:26:17;4.28;;;1.30;;
51272;SDS011;37345;59.828;30.328;2023-04-16T06:28:43;3.33;;;1.48;;
51272;SDS011;37345;59.828;30.328;2023-04-16T06:31:09;2.97;;;1.40;;
51272;SDS011;37345;59.828;30.328;2023-04-16T06:33:36;4.38;;;1.63;;
51272;SDS011;37345;59.828;30.328;2023-04-16T06:36:02;6.50;;;1.63;;
51272;SDS011;37345;59.828;30.328;2023-04-16T06:38:28;8.00;;;2.70;;
51272;SDS011;37345;59.828;30.328;2023-04-16T06:40:54;2.28;;;1.33;;
51272;SDS011;37345;59.828;30.328;2023-04-16T06:43:21;3.85;;;1.52;;
51272;SDS011;37345;59.828;30.328;2023-04-16T06:45:47;4.85;;;1.85;;
51272;SDS011;37345;59.828;30.328;2023-04-16T06:48:14;6.35;;;1.88;;
51272;SDS011;37345;59.828;30.328;2023-04-16T06:50:40;4.25;;;2.22;;
51272;SDS011;37345;59.828;30.328;2023-04-16T06:53:06;5.00;;;1.90;;
51272;SDS011;37345;59.828;30.328;2023-04-16T06:55:32;4.85;;;1.92;;
51272;SDS011;37345;59.828;30.328;2023-04-16T06:57:58;4.68;;;1.83;;
51272;SDS011;37345;59.828;30.328;2023-04-16T07:00:24;4.73;;;1.90;;
51272;SDS011;37345;59.828;30.328;2023-04-16T07:02:50;6.80;;;2.17;;
51272;SDS011;37345;59.828;30.328;2023-04-16T07:05:17;6.13;;;2.33;;
51272;SDS011;37345;59.828;30.328;2023-04-16T07:07:43;6.82;;;1.98;;
51272;SDS011;37345;59.828;30.328;2023-04-16T07:10:09;5.97;;;2.20;;
51272;SDS011;37345;59.828;30.328;2023-04-16T07:12:35;5.13;;;2.25;;
51272;SDS011;37345;59.828;30.328;2023-04-16T07:15:02;5.45;;;1.80;;
51272;SDS011;37345;59.828;30.328;2023-04-16T07:17:28;6.18;;;2.08;;
51272;SDS011;37345;59.828;30.328;2023-04-16T07:19:54;4.30;;;1.83;;
51272;SDS011;37345;59.828;30.328;2023-04-16T07:22:20;4.80;;;1.75;;
51272;SDS011;37345;59.828;30.328;2023-04-16T07:24:46;4.28;;;2.10;;
51272;SDS011;37345;59.828;30.328;2023-04-16T07:27:12;3.35;;;2.10;;
51272;SDS011;37345;59.828;30.328;2023-04-16T07:29:38;4.20;;;2.13;;
51272;SDS011;37345;59.828;30.328;2023-04-16T07:32:05;6.03;;;2.40;;
51272;SDS011;37345;59.828;30.328;2023-04-16T07:34:31;6.47;;;2.10;;
51272;SDS011;37345;59.828;30.328;2023-04-16T07:36:57;8.18;;;2.40;;
51272;SDS011;37345;59.828;30.328;2023-04-16T07:39:23;6.43;;;2.40;;
51272;SDS011;37345;59.828;30.328;2023-04-16T07:41:49;6.43;;;2.43;;
51272;SDS011;37345;59.828;30.328;2023-04-16T07:44:15;4.85;;;2.50;;
51272;SDS011;37345;59.828;30.328;2023-04-16T07:46:42;6.10;;;2.40;;
51272;SDS011;37345;59.828;30.328;2023-04-16T07:49:08;9.00;;;2.58;;
51272;SDS011;37345;59.828;30.328;2023-04-16T07:51:34;3.92;;;2.35;;
51272;SDS011;37345;59.828;30.328;2023-04-16T07:54:00;7.27;;;3.10;;
51272;SDS011;37345;59.828;30.328;2023-04-16T07:56:26;9.07;;;2.83;;
51272;SDS011;37345;59.828;30.328;2023-04-16T07:58:52;7.45;;;2.67;;
51272;SDS011;37345;59.828;30.328;2023-04-16T08:01:19;5.35;;;2.53;;
51272;SDS011;37345;59.828;30.328;2023-04-16T08:03:45;8.37;;;3.20;;
51272;SDS011;37345;59.828;30.328;2023-04-16T08:06:11;8.50;;;3.38;;
51272;SDS011;37345;59.828;30.328;2023-04-16T08:08:37;11.48;;;2.50;;
51272;SDS011;37345;59.828;30.328;2023-04-16T08:11:03;10.18;;;3.00;;
51272;SDS011;37345;59.828;30.328;2023-04-16T08:13:29;9.33;;;2.60;;
51272;SDS011;37345;59.828;30.328;2023-04-16T08:15:55;5.38;;;2.50;;
51272;SDS011;37345;59.828;30.328;2023-04-16T08:18:21;8.30;;;3.13;;
51272;SDS011;37345;59.828;30.328;2023-04-16T08:20:47;6.72;;;2.90;;
51272;SDS011;37345;59.828;30.328;2023-04-16T08:23:14;6.93;;;3.30;;
51272;SDS011;37345;59.828;30.328;2023-04-16T08:25:40;8.20;;;3.50;;
51272;SDS011;37345;59.828;30.328;2023-04-16T08:28:06;10.25;;;3.20;;
51272;SDS011;37345;59.828;30.328;2023-04-16T08:30:32;10.60;;;3.50;;
51272;SDS011;37345;59.828;30.328;2023-04-16T08:32:58;9.50;;;3.35;;
51272;SDS011;37345;59.828;30.328;2023-04-16T08:35:25;7.05;;;2.65;;
51272;SDS011;37345;59.828;30.328;2023-04-16T08:37:51;9.88;;;3.00;;
51272;SDS011;37345;59.828;30.328;2023-04-16T08:40:18;5.68;;;3.20;;
51272;SDS011;37345;59.828;30.328;2023-04-16T08:42:46;4.95;;;2.80;;
51272;SDS011;37345;59.828;30.328;2023-04-16T08:45:14;5.43;;;2.65;;
51272;SDS011;37345;59.828;30.328;2023-04-16T08:47:44;5.73;;;3.13;;
51272;SDS011;37345;59.828;30.328;2023-04-16T08:50:10;7.22;;;3.83;;
51272;SDS011;37345;59.828;30.328;2023-04-16T08:52:44;8.60;;;3.88;;
51272;SDS011;37345;59.828;30.328;2023-04-16T08:55:11;10.05;;;3.88;;
51272;SDS011;37345;59.828;30.328;2023-04-16T08:57:41;6.17;;;3.20;;
51272;SDS011;37345;59.828;30.328;2023-04-16T09:00:09;8.20;;;3.03;;
51272;SDS011;37345;59.828;30.328;2023-04-16T09:02:35;7.70;;;3.50;;
51272;SDS011;37345;59.828;30.328;2023-04-16T09:05:03;7.93;;;3.20;;
51272;SDS011;37345;59.828;30.328;2023-04-16T09:07:30;8.70;;;3.78;;
51272;SDS011;37345;59.828;30.328;2023-04-16T09:09:58;9.98;;;3.72;;
51272;SDS011;37345;59.828;30.328;2023-04-16T09:12:24;5.63;;;3.57;;
51272;SDS011;37345;59.828;30.328;2023-04-16T09:14:51;8.02;;;3.60;;
51272;SDS011;37345;59.828;30.328;2023-04-16T09:17:17;7.80;;;4.00;;
51272;SDS011;37345;59.828;30.328;2023-04-16T09:19:44;8.65;;;4.00;;
51272;SDS011;37345;59.828;30.328;2023-04-16T09:22:10;8.35;;;4.25;;
51272;SDS011;37345;59.828;30.328;2023-04-16T09:24:36;9.73;;;3.97;;
51272;SDS011;37345;59.828;30.328;2023-04-16T09:27:03;9.15;;;4.43;;
51272;SDS011;37345;59.828;30.328;2023-04-16T09:29:36;7.80;;;3.80;;
51272;SDS011;37345;59.828;30.328;2023-04-16T09:32:03;6.20;;;3.35;;
51272;SDS011;37345;59.828;30.328;2023-04-16T09:34:33;8.93;;;4.60;;
51272;SDS011;37345;59.828;30.328;2023-04-16T09:37:13;7.70;;;3.85;;
51272;SDS011;37345;59.828;30.328;2023-04-16T09:39:40;6.93;;;3.92;;
51272;SDS011;37345;59.828;30.328;2023-04-16T09:42:07;10.43;;;4.38;;
51272;SDS011;37345;59.828;30.328;2023-04-16T09:44:34;7.75;;;3.78;;
51272;SDS011;37345;59.828;30.328;2023-04-16T09:47:04;10.87;;;4.10;;
51272;SDS011;37345;59.828;30.328;2023-04-16T09:49:33;5.75;;;4.00;;
51272;SDS011;37345;59.828;30.328;2023-04-16T09:52:03;9.75;;;3.80;;
51272;SDS011;37345;59.828;30.328;2023-04-16T09:54:33;7.68;;;4.60;;
51272;SDS011;37345;59.828;30.328;2023-04-16T09:56:59;8.70;;;4.15;;
51272;SDS011;37345;59.828;30.328;2023-04-16T09:59:26;10.18;;;3.97;;
51272;SDS011;37345;59.828;30.328;2023-04-16T10:01:58;9.27;;;4.32;;
51272;SDS011;37345;59.828;30.328;2023-04-16T10:04:25;10.07;;;4.23;;
51272;SDS011;37345;59.828;30.328;2023-04-16T10:07:01;9.80;;;4.72;;
51272;SDS011;37345;59.828;30.328;2023-04-16T10:09:35;8.88;;;4.03;;
51272;SDS011;37345;59.828;30.328;2023-04-16T10:12:02;8.18;;;3.88;;
51272;SDS011;37345;59.828;30.328;2023-04-16T10:14:28;10.07;;;4.57;;
51272;SDS011;37345;59.828;30.328;2023-04-16T10:16:54;7.38;;;3.90;;
51272;SDS011;37345;59.828;30.328;2023-04-16T10:19:20;8.05;;;3.80;;
51272;SDS011;37345;59.828;30.328;2023-04-16T10:21:47;7.93;;;4.10;;
51272;SDS011;37345;59.828;30.328;2023-04-16T10:24:13;9.60;;;4.25;;
51272;SDS011;37345;59.828;30.328;2023-04-16T10:26:40;8.77;;;4.25;;
51272;SDS011;37345;59.828;30.328;2023-04-16T10:29:07;10.10;;;4.18;;
51272;SDS011;37345;59.828;30.328;2023-04-16T10:31:34;8.45;;;4.38;;
51272;SDS011;37345;59.828;30.328;2023-04-16T10:34:01;8.68;;;4.55;;
51272;SDS011;37345;59.828;30.328;2023-04-16T10:36:28;9.88;;;4.55;;
51272;SDS011;37345;59.828;30.328;2023-04-16T10:38:58;7.78;;;4.22;;
51272;SDS011;37345;59.828;30.328;2023-04-16T10:41:25;8.87;;;4.23;;
51272;SDS011;37345;59.828;30.328;2023-04-16T10:43:52;9.10;;;4.40;;
51272;SDS011;37345;59.828;30.328;2023-04-16T10:46:22;14.55;;;4.55;;
51272;SDS011;37345;59.828;30.328;2023-04-16T10:48:51;12.25;;;4.28;;
51272;SDS011;37345;59.828;30.328;2023-04-16T10:53:50;8.23;;;4.82;;
51272;SDS011;37345;59.828;30.328;2023-04-16T10:56:25;9.35;;;4.50;;
51272;SDS011;37345;59.828;30.328;2023-04-16T10:58:52;7.93;;;4.28;;
51272;SDS011;37345;59.828;30.328;2023-04-16T11:01:26;8.07;;;4.60;;
51272;SDS011;37345;59.828;30.328;2023-04-16T11:03:54;7.55;;;4.47;;
51272;SDS011;37345;59.828;30.328;2023-04-16T11:06:23;12.02;;;4.63;;
51272;SDS011;37345;59.828;30.328;2023-04-16T11:08:51;10.75;;;4.80;;
51272;SDS011;37345;59.828;30.328;2023-04-16T11:11:17;8.82;;;4.93;;
51272;SDS011;37345;59.828;30.328;2023-04-16T11:13:44;10.40;;;4.68;;
51272;SDS011;37345;59.828;30.328;2023-04-16T11:16:13;7.97;;;4.47;;
51272;SDS011;37345;59.828;30.328;2023-04-16T11:18:40;9.38;;;4.40;;
51272;SDS011;37345;59.828;30.328;2023-04-16T11:21:09;11.00;;;4.70;;
51272;SDS011;37345;59.828;30.328;2023-04-16T11:23:49;8.68;;;4.75;;
51272;SDS011;37345;59.828;30.328;2023-04-16T11:26:19;9.23;;;4.57;;
51272;SDS011;37345;59.828;30.328;2023-04-16T11:28:45;9.27;;;4.50;;
51272;SDS011;37345;59.828;30.328;2023-04-16T11:31:11;9.05;;;4.63;;
51272;SDS011;37345;59.828;30.328;2023-04-16T11:33:37;11.52;;;5.28;;
51272;SDS011;37345;59.828;30.328;2023-04-16T11:36:03;9.55;;;4.63;;
51272;SDS011;37345;59.828;30.328;2023-04-16T11:38:34;8.02;;;4.90;;
51272;SDS011;37345;59.828;30.328;2023-04-16T11:41:01;9.07;;;4.97;;
51272;SDS011;37345;59.828;30.328;2023-04-16T11:43:27;6.45;;;4.30;;
51272;SDS011;37345;59.828;30.328;2023-04-16T11:45:57;8.50;;;4.75;;
51272;SDS011;37345;59.828;30.328;2023-04-16T11:48:23;8.95;;;4.60;;
51272;SDS011;37345;59.828;30.328;2023-04-16T11:50:56;8.60;;;4.38;;
51272;SDS011;37345;59.828;30.328;2023-04-16T11:53:22;9.88;;;4.93;;
51272;SDS011;37345;59.828;30.328;2023-04-16T11:55:49;9.18;;;4.20;;
51272;SDS011;37345;59.828;30.328;2023-04-16T11:58:15;6.35;;;4.07;;
51272;SDS011;37345;59.828;30.328;2023-04-16T12:00:41;9.30;;;4.17;;
51272;SDS011;37345;59.828;30.328;2023-04-16T12:03:07;8.38;;;4.28;;
51272;SDS011;37345;59.828;30.328;2023-04-16T12:05:34;9.43;;;4.70;;
51272;SDS011;37345;59.828;30.328;2023-04-16T12:08:06;14.23;;;4.53;;
51272;SDS011;37345;59.828;30.328;2023-04-16T12:10:33;9.23;;;4.22;;
51272;SDS011;37345;59.828;30.328;2023-04-16T12:13:10;10.50;;;4.50;;
51272;SDS011;37345;59.828;30.328;2023-04-16T12:15:49;7.25;;;4.00;;
51272;SDS011;37345;59.828;30.328;2023-04-16T12:18:16;6.65;;;4.07;;
51272;SDS011;37345;59.828;30.328;2023-04-16T12:20:44;7.93;;;4.43;;
51272;SDS011;37345;59.828;30.328;2023-04-16T12:23:23;5.82;;;3.88;;
51272;SDS011;37345;59.828;30.328;2023-04-16T12:25:50;10.13;;;4.03;;
51272;SDS011;37345;59.828;30.328;2023-04-16T12:31:11;6.35;;;3.25;;
51272;SDS011;37345;59.828;30.328;2023-04-16T12:33:38;4.53;;;2.90;;
51272;SDS011;37345;59.828;30.328;2023-04-16T12:36:16;8.27;;;3.35;;
51272;SDS011;37345;59.828;30.328;2023-04-16T12:38:42;6.47;;;3.95;;
51272;SDS011;37345;59.828;30.328;2023-04-16T12:41:08;5.43;;;3.20;;
51272;SDS011;37345;59.828;30.328;2023-04-16T12:43:35;5.70;;;3.07;;
51272;SDS011;37345;59.828;30.328;2023-04-16T12:46:01;8.57;;;3.53;;
51272;SDS011;37345;59.828;30.328;2023-04-16T12:48:27;6.07;;;3.17;;
51272;SDS011;37345;59.828;30.328;2023-04-16T12:50:53;9.82;;;3.45;;
51272;SDS011;37345;59.828;30.328;2023-04-16T12:53:20;10.30;;;3.13;;
51272;SDS011;37345;59.828;30.328;2023-04-16T12:55:46;6.10;;;3.13;;
51272;SDS011;37345;59.828;30.328;2023-04-16T12:58:12;5.45;;;3.17;;
51272;SDS011;37345;59.828;30.328;2023-04-16T13:00:38;5.85;;;3.25;;
51272;SDS011;37345;59.828;30.328;2023-04-16T13:03:04;8.15;;;3.58;;
51272;SDS011;37345;59.828;30.328;2023-04-16T13:05:30;6.28;;;3.50;;
51272;SDS011;37345;59.828;30.328;2023-04-16T13:07:57;4.72;;;3.10;;
51272;SDS011;37345;59.828;30.328;2023-04-16T13:10:23;7.63;;;3.67;;
51272;SDS011;37345;59.828;30.328;2023-04-16T13:12:49;6.68;;;3.40;;
51272;SDS011;37345;59.828;30.328;2023-04-16T13:15:15;44.88;;;21.55;;
51272;SDS011;37345;59.828;30.328;2023-04-16T13:17:41;9.15;;;3.63;;
51272;SDS011;37345;59.828;30.328;2023-04-16T13:20:07;7.20;;;3.75;;
51272;SDS011;37345;59.828;30.328;2023-04-16T13:22:34;7.00;;;3.53;;
51272;SDS011;37345;59.828;30.328;2023-04-16T13:25:00;9.07;;;3.90;;
51272;SDS011;37345;59.828;30.328;2023-04-16T13:27:26;8.10;;;3.90;;
51272;SDS011;37345;59.828;30.328;2023-04-16T13:29:52;6.80;;;3.58;;
51272;SDS011;37345;59.828;30.328;2023-04-16T13:32:18;5.60;;;3.30;;
51272;SDS011;37345;59.828;30.328;2023-04-16T13:34:44;7.13;;;3.40;;
51272;SDS011;37345;59.828;30.328;2023-04-16T13:37:11;8.25;;;3.72;;
51272;SDS011;37345;59.828;30.328;2023-04-16T13:39:37;6.53;;;3.83;;
51272;SDS011;37345;59.828;30.328;2023-04-16T13:42:04;6.53;;;3.47;;
51272;SDS011;37345;59.828;30.328;2023-04-16T13:44:30;5.73;;;3.53;;
51272;SDS011;37345;59.828;30.328;2023-04-16T13:46:56;5.93;;;3.45;;
51272;SDS011;37345;59.828;30.328;2023-04-16T13:49:22;7.13;;;3.95;;
51272;SDS011;37345;59.828;30.328;2023-04-16T13:51:48;8.30;;;3.72;;
51272;SDS011;37345;59.828;30.328;2023-04-16T13:54:14;6.80;;;3.67;;
51272;SDS011;37345;59.828;30.328;2023-04-16T13:56:40;8.45;;;3.65;;
51272;SDS011;37345;59.828;30.328;2023-04-16T13:59:07;6.93;;;3.33;;
51272;SDS011;37345;59.828;30.328;2023-04-16T14:01:33;6.32;;;3.40;;
51272;SDS011;37345;59.828;30.328;2023-04-16T14:03:59;8.18;;;3.85;;
51272;SDS011;37345;59.828;30.328;2023-04-16T14:06:30;7.20;;;3.50;;
51272;SDS011;37345;59.828;30.328;2023-04-16T14:08:56;5.20;;;3.30;;
51272;SDS011;37345;59.828;30.328;2023-04-16T14:11:22;8.07;;;3.63;;
51272;SDS011;37345;59.828;30.328;2023-04-16T14:13:48;7.88;;;3.63;;
51272;SDS011;37345;59.828;30.328;2023-04-16T14:16:14;6.55;;;3.80;;
51272;SDS011;37345;59.828;30.328;2023-04-16T14:18:40;8.10;;;3.55;;
51272;SDS011;37345;59.828;30.328;2023-04-16T14:21:07;10.13;;;3.67;;
51272;SDS011;37345;59.828;30.328;2023-04-16T14:23:33;9.03;;;3.80;;
51272;SDS011;37345;59.828;30.328;2023-04-16T14:25:59;5.90;;;3.47;;
51272;SDS011;37345;59.828;30.328;2023-04-16T14:28:25;6.20;;;3.20;;
51272;SDS011;37345;59.828;30.328;2023-04-16T14:30:51;6.70;;;3.63;;
51272;SDS011;37345;59.828;30.328;2023-04-16T14:33:17;7.38;;;3.40;;
51272;SDS011;37345;59.828;30.328;2023-04-16T14:35:44;7.00;;;3.10;;